sensor_id;sensor_type;location;lat;lon;timestamp;pressure;altitude;pressure_sealevel;temperature;humidity
50790;BME280;37287;47.554;7.844;2023-08-12T00:00:33;98151.06;;;19.38;83.76
50790;BME280;37287;47.554;7.844;2023-08-12T00:03:26;98148.81;;;19.33;83.95
50790;BME280;37287;47.554;7.844;2023-08-12T00:06:19;98149.75;;;19.27;84.74
50790;BME280;37287;47.554;7.844;2023-08-12T00:08:49;98144.19;;;19.30;84.67
50790;BME280;37287;47.554;7.844;2023-08-12T00:11:17;98141.09;;;19.28;84.92
50790;BME280;37287;47.554;7.844;2023-08-12T00:13:44;98143.75;;;19.32;85.73
50790;BME280;37287;47.554;7.844;2023-08-12T00:16:35;98141.94;;;19.25;85.93
50790;BME280;37287;47.554;7.844;2023-08-12T00:19:25;98136.72;;;19.31;86.07
50790;BME280;37287;47.554;7.844;2023-08-12T00:22:15;98137.16;;;19.29;85.66
50790;BME280;37287;47.554;7.844;2023-08-12T00:25:06;98136.81;;;19.27;86.38
50790;BME280;37287;47.554;7.844;2023-08-12T00:27:59;98138.59;;;19.34;86.22
50790;BME280;37287;47.554;7.844;2023-08-12T00:30:49;98140.59;;;19.33;85.65
50790;BME280;37287;47.554;7.844;2023-08-12T00:33:42;98135.25;;;19.42;85.89
50790;BME280;37287;47.554;7.844;2023-08-12T00:36:33;98137.75;;;19.53;87.96
50790;BME280;37287;47.554;7.844;2023-08-12T00:39:24;98128.22;;;19.58;89.70
50790;BME280;37287;47.554;7.844;2023-08-12T00:42:15;98132.38;;;19.50;86.87
50790;BME280;37287;47.554;7.844;2023-08-12T00:45:09;98129.63;;;19.50;88.82
50790;BME280;37287;47.554;7.844;2023-08-12T00:48:02;98134.25;;;19.53;88.70
50790;BME280;37287;47.554;7.844;2023-08-12T00:50:53;98132.38;;;19.50;87.66
50790;BME280;37287;47.554;7.844;2023-08-12T00:53:45;98131.16;;;19.51;88.11
50790;BME280;37287;47.554;7.844;2023-08-12T00:56:18;98135.88;;;19.50;88.35
50790;BME280;37287;47.554;7.844;2023-08-12T00:58:52;98128.75;;;19.53;89.07
50790;BME280;37287;47.554;7.844;2023-08-12T01:06:48;98134.06;;;19.44;88.48
50790;BME280;37287;47.554;7.844;2023-08-12T01:09:39;98123.34;;;19.49;89.84
50790;BME280;37287;47.554;7.844;2023-08-12T01:12:26;98125.56;;;19.38;89.90
50790;BME280;37287;47.554;7.844;2023-08-12T01:15:10;98125.97;;;19.20;89.58
50790;BME280;37287;47.554;7.844;2023-08-12T01:18:13;98128.03;;;18.99;91.11
50790;BME280;37287;47.554;7.844;2023-08-12T01:20:40;98119.25;;;18.88;91.83
50790;BME280;37287;47.554;7.844;2023-08-12T01:23:15;98123.66;;;18.82;92.48
50790;BME280;37287;47.554;7.844;2023-08-12T01:25:42;98115.09;;;18.80;92.95
50790;BME280;37287;47.554;7.844;2023-08-12T01:28:09;98110.47;;;18.77;93.57
50790;BME280;37287;47.554;7.844;2023-08-12T01:30:52;98103.16;;;18.70;93.97
50790;BME280;37287;47.554;7.844;2023-08-12T01:33:33;98104.78;;;18.67;94.11
50790;BME280;37287;47.554;7.844;2023-08-12T01:36:13;98095.34;;;18.68;94.26
50790;BME280;37287;47.554;7.844;2023-08-12T01:38:46;98098.44;;;18.70;92.95
50790;BME280;37287;47.554;7.844;2023-08-12T01:41:26;98090.47;;;18.76;93.70
50790;BME280;37287;47.554;7.844;2023-08-12T01:44:19;98094.34;;;18.79;93.16
50790;BME280;37287;47.554;7.844;2023-08-12T01:47:09;98097.94;;;18.76;93.05
50790;BME280;37287;47.554;7.844;2023-08-12T01:49:41;98096.81;;;18.73;92.96
50790;BME280;37287;47.554;7.844;2023-08-12T01:52:08;98089.00;;;18.71;94.75
50790;BME280;37287;47.554;7.844;2023-08-12T01:54:37;98089.25;;;18.61;93.36
50790;BME280;37287;47.554;7.844;2023-08-12T01:57:09;98082.28;;;18.56;94.68
50790;BME280;37287;47.554;7.844;2023-08-12T01:59:37;98083.50;;;18.55;95.60
50790;BME280;37287;47.554;7.844;2023-08-12T02:02:08;98087.88;;;18.52;94.46
50790;BME280;37287;47.554;7.844;2023-08-12T02:04:35;98093.63;;;18.58;94.37
50790;BME280;37287;47.554;7.844;2023-08-12T02:07:04;98088.63;;;18.53;94.30
50790;BME280;37287;47.554;7.844;2023-08-12T02:09:35;98081.69;;;18.48;94.53
50790;BME280;37287;47.554;7.844;2023-08-12T02:12:07;98080.13;;;18.47;94.72
50790;BME280;37287;47.554;7.844;2023-08-12T02:14:34;98061.44;;;18.42;94.71
50790;BME280;37287;47.554;7.844;2023-08-12T02:17:04;98069.38;;;18.36;96.42
50790;BME280;37287;47.554;7.844;2023-08-12T02:19:43;98071.78;;;18.34;96.43
50790;BME280;37287;47.554;7.844;2023-08-12T02:22:09;98070.00;;;18.44;96.78
50790;BME280;37287;47.554;7.844;2023-08-12T02:24:40;98072.19;;;18.53;96.41
50790;BME280;37287;47.554;7.844;2023-08-12T02:27:08;98075.47;;;18.64;97.06
50790;BME280;37287;47.554;7.844;2023-08-12T02:29:39;98078.91;;;18.68;96.44
50790;BME280;37287;47.554;7.844;2023-08-12T02:32:09;98081.44;;;18.59;95.69
50790;BME280;37287;47.554;7.844;2023-08-12T02:34:39;98078.97;;;18.65;97.65
50790;BME280;37287;47.554;7.844;2023-08-12T02:37:06;98079.59;;;18.72;97.83
50790;BME280;37287;47.554;7.844;2023-08-12T02:39:39;98081.84;;;18.78;97.35
50790;BME280;37287;47.554;7.844;2023-08-12T02:42:07;98084.94;;;18.80;96.40
50790;BME280;37287;47.554;7.844;2023-08-12T02:44:59;98077.63;;;18.73;95.69
50790;BME280;37287;47.554;7.844;2023-08-12T02:47:51;98083.63;;;18.68;96.02
50790;BME280;37287;47.554;7.844;2023-08-12T02:50:45;98074.59;;;18.67;98.25
50790;BME280;37287;47.554;7.844;2023-08-12T02:53:16;98077.56;;;18.77;99.02
50790;BME280;37287;47.554;7.844;2023-08-12T02:55:48;98075.50;;;18.81;99.73
50790;BME280;37287;47.554;7.844;2023-08-12T02:58:19;98076.94;;;18.89;100.00
50790;BME280;37287;47.554;7.844;2023-08-12T03:00:46;98083.88;;;18.94;100.00
50790;BME280;37287;47.554;7.844;2023-08-12T03:03:16;98078.38;;;18.94;99.40
50790;BME280;37287;47.554;7.844;2023-08-12T03:05:46;98074.34;;;18.98;99.30
50790;BME280;37287;47.554;7.844;2023-08-12T03:08:38;98068.00;;;19.01;99.93
50790;BME280;37287;47.554;7.844;2023-08-12T03:11:08;98072.78;;;18.97;96.56
50790;BME280;37287;47.554;7.844;2023-08-12T03:13:35;98072.81;;;18.77;96.52
50790;BME280;37287;47.554;7.844;2023-08-12T03:16:02;98066.22;;;18.74;96.31
50790;BME280;37287;47.554;7.844;2023-08-12T03:18:38;98069.13;;;18.67;96.40
50790;BME280;37287;47.554;7.844;2023-08-12T03:21:17;98068.09;;;18.61;96.69
50790;BME280;37287;47.554;7.844;2023-08-12T03:24:08;98068.78;;;18.65;97.55
50790;BME280;37287;47.554;7.844;2023-08-12T03:26:59;98069.78;;;18.55;96.75
50790;BME280;37287;47.554;7.844;2023-08-12T03:29:49;98062.56;;;18.45;96.81
50790;BME280;37287;47.554;7.844;2023-08-12T03:32:41;98064.75;;;18.33;97.91
50790;BME280;37287;47.554;7.844;2023-08-12T03:35:33;98071.56;;;18.25;98.52
50790;BME280;37287;47.554;7.844;2023-08-12T03:38:24;98064.56;;;18.24;98.54
50790;BME280;37287;47.554;7.844;2023-08-12T03:41:14;98059.22;;;18.17;97.92
50790;BME280;37287;47.554;7.844;2023-08-12T03:44:06;98065.81;;;18.19;97.53
50790;BME280;37287;47.554;7.844;2023-08-12T03:46:47;98057.66;;;18.16;97.66
50790;BME280;37287;47.554;7.844;2023-08-12T03:49:38;98043.22;;;18.15;97.38
50790;BME280;37287;47.554;7.844;2023-08-12T03:52:10;98060.31;;;18.19;97.26
50790;BME280;37287;47.554;7.844;2023-08-12T03:54:40;98060.31;;;18.19;97.02
50790;BME280;37287;47.554;7.844;2023-08-12T03:57:11;98068.06;;;18.25;97.38
50790;BME280;37287;47.554;7.844;2023-08-12T03:59:38;98057.81;;;18.29;98.05
50790;BME280;37287;47.554;7.844;2023-08-12T04:02:04;98063.88;;;18.36;98.95
50790;BME280;37287;47.554;7.844;2023-08-12T04:04:34;98054.91;;;18.36;97.69
50790;BME280;37287;47.554;7.844;2023-08-12T04:07:01;98056.19;;;18.31;97.88
50790;BME280;37287;47.554;7.844;2023-08-12T04:09:52;98052.44;;;18.42;100.00
50790;BME280;37287;47.554;7.844;2023-08-12T04:12:24;98046.97;;;18.42;99.79
50790;BME280;37287;47.554;7.844;2023-08-12T04:14:53;98058.78;;;18.38;98.06
50790;BME280;37287;47.554;7.844;2023-08-12T04:17:44;98065.44;;;18.37;98.40
50790;BME280;37287;47.554;7.844;2023-08-12T04:20:37;98060.81;;;18.34;97.75
50790;BME280;37287;47.554;7.844;2023-08-12T04:23:10;98053.28;;;18.38;100.00
50790;BME280;37287;47.554;7.844;2023-08-12T04:25:39;98046.53;;;18.43;100.00
50790;BME280;37287;47.554;7.844;2023-08-12T04:28:06;98054.31;;;18.45;100.00
50790;BME280;37287;47.554;7.844;2023-08-12T04:30:43;98057.59;;;18.39;99.72
50790;BME280;37287;47.554;7.844;2023-08-12T04:33:10;98062.28;;;18.39;99.40
50790;BME280;37287;47.554;7.844;2023-08-12T04:35:41;98058.84;;;18.35;98.47
50790;BME280;37287;47.554;7.844;2023-08-12T04:38:10;98061.16;;;18.36;98.51
50790;BME280;37287;47.554;7.844;2023-08-12T04:40:42;98055.00;;;18.32;99.21
50790;BME280;37287;47.554;7.844;2023-08-12T04:43:18;98053.03;;;18.33;99.60
50790;BME280;37287;47.554;7.844;2023-08-12T04:45:48;98052.25;;;18.32;99.00
50790;BME280;37287;47.554;7.844;2023-08-12T04:48:15;98048.25;;;18.37;100.00
50790;BME280;37287;47.554;7.844;2023-08-12T04:51:06;98055.34;;;18.34;100.00
50790;BME280;37287;47.554;7.844;2023-08-12T04:53:36;98066.44;;;18.27;99.98
50790;BME280;37287;47.554;7.844;2023-08-12T04:56:06;98071.03;;;18.34;100.00
50790;BME280;37287;47.554;7.844;2023-08-12T04:58:33;98061.50;;;18.38;100.00
50790;BME280;37287;47.554;7.844;2023-08-12T05:01:02;98054.75;;;18.43;100.00
50790;BME280;37287;47.554;7.844;2023-08-12T05:03:32;98052.81;;;18.44;100.00
50790;BME280;37287;47.554;7.844;2023-08-12T05:05:59;98049.69;;;18.42;99.28
50790;BME280;37287;47.554;7.844;2023-08-12T05:08:49;98050.41;;;18.46;100.00
50790;BME280;37287;47.554;7.844;2023-08-12T05:11:40;98047.81;;;18.38;100.00
50790;BME280;37287;47.554;7.844;2023-08-12T05:14:10;98050.28;;;18.33;100.00
50790;BME280;37287;47.554;7.844;2023-08-12T05:16:40;98050.00;;;18.27;100.00
50790;BME280;37287;47.554;7.844;2023-08-12T05:22:37;98043.38;;;18.45;100.00
50790;BME280;37287;47.554;7.844;2023-08-12T05:25:04;98047.06;;;18.54;100.00
50790;BME280;37287;47.554;7.844;2023-08-12T05:27:34;98039.22;;;18.56;100.00
50790;BME280;37287;47.554;7.844;2023-08-12T05:30:03;98044.88;;;18.66;100.00
50790;BME280;37287;47.554;7.844;2023-08-12T05:32:30;98031.00;;;18.73;100.00
50790;BME280;37287;47.554;7.844;2023-08-12T05:35:00;98031.47;;;18.88;99.98
50790;BME280;37287;47.554;7.844;2023-08-12T05:37:30;98040.56;;;19.01;99.35
50790;BME280;37287;47.554;7.844;2023-08-12T05:39:57;98040.91;;;19.36;99.21
50790;BME280;37287;47.554;7.844;2023-08-12T05:42:24;98044.81;;;19.68;97.74
50790;BME280;37287;47.554;7.844;2023-08-12T05:45:15;98047.31;;;20.21;97.05
50790;BME280;37287;47.554;7.844;2023-08-12T05:47:45;98044.19;;;20.61;94.97
50790;BME280;37287;47.554;7.844;2023-08-12T05:51:01;98057.31;;;20.83;93.25
50790;BME280;37287;47.554;7.844;2023-08-12T05:54:17;98057.72;;;21.07;92.66
50790;BME280;37287;47.554;7.844;2023-08-12T05:57:32;98049.03;;;21.09;92.50
50790;BME280;37287;47.554;7.844;2023-08-12T06:00:49;98052.13;;;21.11;94.11
50790;BME280;37287;47.554;7.844;2023-08-12T06:04:05;98053.34;;;20.97;94.92
50790;BME280;37287;47.554;7.844;2023-08-12T06:06:56;98060.28;;;20.89;95.03
50790;BME280;37287;47.554;7.844;2023-08-12T06:09:46;98053.13;;;20.78;96.67
50790;BME280;37287;47.554;7.844;2023-08-12T06:12:38;98050.25;;;20.69;96.03
50790;BME280;37287;47.554;7.844;2023-08-12T06:15:29;98056.38;;;20.48;96.37
50790;BME280;37287;47.554;7.844;2023-08-12T06:18:20;98050.31;;;20.40;98.20
50790;BME280;37287;47.554;7.844;2023-08-12T06:21:11;98045.47;;;20.44;98.56
50790;BME280;37287;47.554;7.844;2023-08-12T06:24:04;98048.66;;;20.42;98.51
50790;BME280;37287;47.554;7.844;2023-08-12T06:26:56;98049.00;;;20.44;97.45
50790;BME280;37287;47.554;7.844;2023-08-12T06:29:48;98043.75;;;20.50;97.24
50790;BME280;37287;47.554;7.844;2023-08-12T06:32:18;98038.91;;;20.54;97.32
50790;BME280;37287;47.554;7.844;2023-08-12T06:40:47;98047.72;;;20.88;91.91
50790;BME280;37287;47.554;7.844;2023-08-12T06:43:17;98051.56;;;21.03;91.69
50790;BME280;37287;47.554;7.844;2023-08-12T06:46:07;98044.00;;;20.94;94.25
50790;BME280;37287;47.554;7.844;2023-08-12T06:48:40;98037.72;;;20.94;95.01
50790;BME280;37287;47.554;7.844;2023-08-12T06:51:07;98051.56;;;21.03;95.02
50790;BME280;37287;47.554;7.844;2023-08-12T06:53:40;98051.91;;;21.05;94.71
50790;BME280;37287;47.554;7.844;2023-08-12T06:56:10;98052.00;;;21.15;94.67
50790;BME280;37287;47.554;7.844;2023-08-12T06:58:39;98043.16;;;21.33;94.54
50790;BME280;37287;47.554;7.844;2023-08-12T07:01:11;98046.53;;;21.62;92.55
50790;BME280;37287;47.554;7.844;2023-08-12T07:04:04;98048.47;;;22.19;88.45
50790;BME280;37287;47.554;7.844;2023-08-12T07:06:50;98054.13;;;22.69;84.76
50790;BME280;37287;47.554;7.844;2023-08-12T07:09:18;98044.59;;;23.11;82.14
50790;BME280;37287;47.554;7.844;2023-08-12T07:11:45;98045.75;;;23.41;79.56
50790;BME280;37287;47.554;7.844;2023-08-12T07:14:15;98036.41;;;23.66;78.18
50790;BME280;37287;47.554;7.844;2023-08-12T07:17:06;98047.47;;;23.85;78.42
50790;BME280;37287;47.554;7.844;2023-08-12T07:19:56;98042.56;;;23.70;76.79
50790;BME280;37287;47.554;7.844;2023-08-12T07:22:46;98042.41;;;23.56;76.71
50790;BME280;37287;47.554;7.844;2023-08-12T07:25:27;98052.53;;;23.40;75.37
50790;BME280;37287;47.554;7.844;2023-08-12T07:27:57;98032.88;;;23.29;77.18
50790;BME280;37287;47.554;7.844;2023-08-12T07:30:27;98033.91;;;23.22;77.88
50790;BME280;37287;47.554;7.844;2023-08-12T07:32:54;98046.03;;;23.15;77.91
50790;BME280;37287;47.554;7.844;2023-08-12T07:35:20;98052.66;;;23.27;77.58
50790;BME280;37287;47.554;7.844;2023-08-12T07:38:17;98055.44;;;23.55;76.74
50790;BME280;37287;47.554;7.844;2023-08-12T07:40:44;98057.00;;;23.84;74.99
50790;BME280;37287;47.554;7.844;2023-08-12T07:43:10;98072.22;;;24.16;74.59
50790;BME280;37287;47.554;7.844;2023-08-12T07:45:37;98070.34;;;24.32;73.94
50790;BME280;37287;47.554;7.844;2023-08-12T07:48:04;98086.00;;;24.44;74.06
50790;BME280;37287;47.554;7.844;2023-08-12T07:50:31;98100.47;;;24.39;74.70
50790;BME280;37287;47.554;7.844;2023-08-12T07:52:57;98111.53;;;24.39;73.51
50790;BME280;37287;47.554;7.844;2023-08-12T07:55:27;98111.53;;;24.39;73.94
50790;BME280;37287;47.554;7.844;2023-08-12T07:57:55;98104.47;;;24.38;73.41
50790;BME280;37287;47.554;7.844;2023-08-12T08:00:22;98109.06;;;24.41;73.52
50790;BME280;37287;47.554;7.844;2023-08-12T08:02:48;98107.38;;;24.44;74.36
50790;BME280;37287;47.554;7.844;2023-08-12T08:05:17;98109.09;;;24.32;73.58
50790;BME280;37287;47.554;7.844;2023-08-12T08:07:44;98123.84;;;24.19;75.63
50790;BME280;37287;47.554;7.844;2023-08-12T08:10:10;98137.66;;;23.82;78.96
50790;BME280;37287;47.554;7.844;2023-08-12T08:12:38;98149.88;;;23.53;80.88
50790;BME280;37287;47.554;7.844;2023-08-12T08:15:05;98142.13;;;23.30;82.14
50790;BME280;37287;47.554;7.844;2023-08-12T08:17:32;98143.25;;;23.10;82.74
50790;BME280;37287;47.554;7.844;2023-08-12T08:20:05;98131.25;;;23.04;83.74
50790;BME280;37287;47.554;7.844;2023-08-12T08:22:33;98129.13;;;23.08;83.39
50790;BME280;37287;47.554;7.844;2023-08-12T08:25:03;98139.28;;;23.11;83.26
50790;BME280;37287;47.554;7.844;2023-08-12T08:27:32;98144.75;;;23.02;83.75
50790;BME280;37287;47.554;7.844;2023-08-12T08:29:59;98147.91;;;22.91;84.41
50790;BME280;37287;47.554;7.844;2023-08-12T08:32:26;98146.38;;;22.90;84.84
50790;BME280;37287;47.554;7.844;2023-08-12T08:34:55;98148.38;;;22.90;84.81
50790;BME280;37287;47.554;7.844;2023-08-12T08:37:24;98148.31;;;22.80;85.22
50790;BME280;37287;47.554;7.844;2023-08-12T08:39:50;98141.00;;;22.87;85.07
50790;BME280;37287;47.554;7.844;2023-08-12T08:42:20;98140.41;;;22.92;84.62
50790;BME280;37287;47.554;7.844;2023-08-12T08:44:52;98134.00;;;22.95;84.15
50790;BME280;37287;47.554;7.844;2023-08-12T08:47:26;98134.75;;;22.95;84.15
50790;BME280;37287;47.554;7.844;2023-08-12T08:49:56;98140.91;;;22.99;83.83
50790;BME280;37287;47.554;7.844;2023-08-12T08:52:24;98140.16;;;22.99;83.88
50790;BME280;37287;47.554;7.844;2023-08-12T08:54:50;98140.16;;;22.99;83.62
50790;BME280;37287;47.554;7.844;2023-08-12T08:57:20;98143.69;;;23.09;83.64
50790;BME280;37287;47.554;7.844;2023-08-12T09:00:05;98143.66;;;23.22;82.33
50790;BME280;37287;47.554;7.844;2023-08-12T09:02:45;98145.66;;;23.30;81.13
50790;BME280;37287;47.554;7.844;2023-08-12T09:05:14;98145.34;;;23.28;81.32
50790;BME280;37287;47.554;7.844;2023-08-12T09:07:43;98151.31;;;23.27;81.68
50790;BME280;37287;47.554;7.844;2023-08-12T09:10:11;98151.00;;;23.25;84.31
50790;BME280;37287;47.554;7.844;2023-08-12T09:12:43;98140.25;;;23.17;88.40
50790;BME280;37287;47.554;7.844;2023-08-12T09:15:16;98131.59;;;23.06;91.65
50790;BME280;37287;47.554;7.844;2023-08-12T09:17:43;98138.19;;;22.77;91.26
50790;BME280;37287;47.554;7.844;2023-08-12T09:20:10;98132.34;;;22.44;92.08
50790;BME280;37287;47.554;7.844;2023-08-12T09:22:41;98132.94;;;22.26;94.25
50790;BME280;37287;47.554;7.844;2023-08-12T09:25:10;98138.38;;;22.16;95.70
50790;BME280;37287;47.554;7.844;2023-08-12T09:27:37;98142.91;;;22.10;98.25
50790;BME280;37287;47.554;7.844;2023-08-12T09:30:07;98155.56;;;21.98;98.14
50790;BME280;37287;47.554;7.844;2023-08-12T09:32:35;98172.44;;;21.88;100.00
50790;BME280;37287;47.554;7.844;2023-08-12T09:35:01;98162.88;;;21.79;100.00
50790;BME280;37287;47.554;7.844;2023-08-12T09:37:34;98140.16;;;21.75;100.00
50790;BME280;37287;47.554;7.844;2023-08-12T09:40:01;98135.09;;;21.74;100.00
50790;BME280;37287;47.554;7.844;2023-08-12T09:42:32;98130.56;;;21.80;100.00
50790;BME280;37287;47.554;7.844;2023-08-12T09:44:59;98140.91;;;21.89;100.00
50790;BME280;37287;47.554;7.844;2023-08-12T09:47:27;98145.38;;;21.95;100.00
50790;BME280;37287;47.554;7.844;2023-08-12T09:49:56;98137.31;;;22.01;100.00
50790;BME280;37287;47.554;7.844;2023-08-12T09:52:27;98137.97;;;22.05;100.00
50790;BME280;37287;47.554;7.844;2023-08-12T09:54:55;98138.38;;;22.16;100.00
50790;BME280;37287;47.554;7.844;2023-08-12T09:57:24;98138.44;;;22.26;100.00
50790;BME280;37287;47.554;7.844;2023-08-12T09:59:54;98136.41;;;22.39;100.00
50790;BME280;37287;47.554;7.844;2023-08-12T10:02:22;98144.69;;;22.61;100.00
50790;BME280;37287;47.554;7.844;2023-08-12T10:04:53;98140.84;;;22.90;100.00
50790;BME280;37287;47.554;7.844;2023-08-12T10:07:23;98137.69;;;23.01;100.00
50790;BME280;37287;47.554;7.844;2023-08-12T10:09:49;98137.16;;;23.15;100.00
50790;BME280;37287;47.554;7.844;2023-08-12T10:12:16;98141.00;;;23.18;100.00
50790;BME280;37287;47.554;7.844;2023-08-12T10:14:50;98159.47;;;23.30;100.00
50790;BME280;37287;47.554;7.844;2023-08-12T10:17:17;98157.16;;;23.29;100.00
50790;BME280;37287;47.554;7.844;2023-08-12T10:20:04;98147.63;;;23.30;100.00
50790;BME280;37287;47.554;7.844;2023-08-12T10:22:35;98153.03;;;23.33;100.00
50790;BME280;37287;47.554;7.844;2023-08-12T10:25:03;98155.94;;;23.30;100.00
50790;BME280;37287;47.554;7.844;2023-08-12T10:27:31;98150.69;;;23.23;100.00
50790;BME280;37287;47.554;7.844;2023-08-12T10:30:02;98150.50;;;23.17;100.00
50790;BME280;37287;47.554;7.844;2023-08-12T10:32:30;98148.66;;;23.14;100.00
50790;BME280;37287;47.554;7.844;2023-08-12T10:34:58;98137.31;;;23.12;100.00
50790;BME280;37287;47.554;7.844;2023-08-12T10:37:25;98126.38;;;23.08;100.00
50790;BME280;37287;47.554;7.844;2023-08-12T10:39:53;98115.84;;;23.16;100.00
50790;BME280;37287;47.554;7.844;2023-08-12T10:42:58;98111.72;;;23.21;100.00
50790;BME280;37287;47.554;7.844;2023-08-12T10:45:41;98111.72;;;23.21;100.00
50790;BME280;37287;47.554;7.844;2023-08-12T10:50:44;98101.19;;;23.47;100.00
50790;BME280;37287;47.554;7.844;2023-08-12T10:53:26;98101.81;;;23.69;100.00
50790;BME280;37287;47.554;7.844;2023-08-12T10:56:02;98093.41;;;23.82;100.00
50790;BME280;37287;47.554;7.844;2023-08-12T10:58:46;98096.50;;;23.94;100.00
50790;BME280;37287;47.554;7.844;2023-08-12T11:01:16;98087.38;;;24.30;97.55
50790;BME280;37287;47.554;7.844;2023-08-12T11:03:45;98079.19;;;24.64;94.67
50790;BME280;37287;47.554;7.844;2023-08-12T11:06:12;98081.53;;;24.99;89.44
50790;BME280;37287;47.554;7.844;2023-08-12T11:08:51;98085.16;;;25.14;86.33
50790;BME280;37287;47.554;7.844;2023-08-12T11:11:22;98072.19;;;25.20;87.12
50790;BME280;37287;47.554;7.844;2023-08-12T11:13:56;98076.19;;;25.19;86.02
50790;BME280;37287;47.554;7.844;2023-08-12T11:16:36;98072.63;;;25.28;84.58
50790;BME280;37287;47.554;7.844;2023-08-12T11:19:04;98074.63;;;25.52;83.51
50790;BME280;37287;47.554;7.844;2023-08-12T11:21:31;98082.84;;;25.70;82.28
50790;BME280;37287;47.554;7.844;2023-08-12T11:24:00;98073.38;;;25.77;81.99
50790;BME280;37287;47.554;7.844;2023-08-12T11:26:30;98072.47;;;25.95;82.92
50790;BME280;37287;47.554;7.844;2023-08-12T11:28:56;98063.25;;;26.13;81.63
50790;BME280;37287;47.554;7.844;2023-08-12T11:31:23;98066.78;;;26.29;80.92
50790;BME280;37287;47.554;7.844;2023-08-12T11:33:52;98064.22;;;26.40;79.71
50790;BME280;37287;47.554;7.844;2023-08-12T11:36:20;98054.03;;;26.52;80.82
50790;BME280;37287;47.554;7.844;2023-08-12T11:38:47;98052.91;;;26.58;80.17
50790;BME280;37287;47.554;7.844;2023-08-12T11:41:17;98053.38;;;26.72;80.93
50790;BME280;37287;47.554;7.844;2023-08-12T11:43:44;98048.56;;;26.87;79.78
50790;BME280;37287;47.554;7.844;2023-08-12T11:46:10;98048.44;;;26.97;73.87
50790;BME280;37287;47.554;7.844;2023-08-12T11:48:37;98042.84;;;27.11;78.72
50790;BME280;37287;47.554;7.844;2023-08-12T11:51:04;98049.03;;;27.21;78.44
50790;BME280;37287;47.554;7.844;2023-08-12T11:53:31;98043.72;;;27.38;77.96
50790;BME280;37287;47.554;7.844;2023-08-12T11:55:58;98047.63;;;27.47;75.55
50790;BME280;37287;47.554;7.844;2023-08-12T11:58:25;98040.88;;;27.53;77.31
50790;BME280;37287;47.554;7.844;2023-08-12T12:00:59;98041.69;;;27.59;75.25
50790;BME280;37287;47.554;7.844;2023-08-12T12:03:29;98039.59;;;27.75;75.69
50790;BME280;37287;47.554;7.844;2023-08-12T12:05:58;98037.03;;;27.71;72.05
50790;BME280;37287;47.554;7.844;2023-08-12T12:08:24;98022.91;;;27.75;74.75
50790;BME280;37287;47.554;7.844;2023-08-12T12:10:51;98033.34;;;27.80;74.27
50790;BME280;37287;47.554;7.844;2023-08-12T12:13:18;98026.66;;;27.92;73.06
50790;BME280;37287;47.554;7.844;2023-08-12T12:15:45;98024.69;;;27.99;70.01
50790;BME280;37287;47.554;7.844;2023-08-12T12:18:17;98021.84;;;28.19;67.09
50790;BME280;37287;47.554;7.844;2023-08-12T12:20:57;98026.66;;;28.19;68.43
50790;BME280;37287;47.554;7.844;2023-08-12T12:23:28;98019.59;;;28.23;70.20
50790;BME280;37287;47.554;7.844;2023-08-12T12:26:01;98020.78;;;28.11;70.61
50790;BME280;37287;47.554;7.844;2023-08-12T12:28:30;98027.84;;;28.12;71.05
50790;BME280;37287;47.554;7.844;2023-08-12T12:30:57;98031.13;;;28.10;70.24
50790;BME280;37287;47.554;7.844;2023-08-12T12:33:26;98024.38;;;27.96;71.94
50790;BME280;37287;47.554;7.844;2023-08-12T12:35:55;98027.34;;;27.87;72.30
50790;BME280;37287;47.554;7.844;2023-08-12T12:38:27;98022.78;;;27.63;72.51
50790;BME280;37287;47.554;7.844;2023-08-12T12:40:53;98025.44;;;27.52;69.63
50790;BME280;37287;47.554;7.844;2023-08-12T12:43:29;98022.53;;;27.41;69.40
50790;BME280;37287;47.554;7.844;2023-08-12T12:46:01;98014.31;;;27.32;73.02
50790;BME280;37287;47.554;7.844;2023-08-12T12:48:30;98021.03;;;27.25;73.14
50790;BME280;37287;47.554;7.844;2023-08-12T12:51:00;98028.66;;;27.30;73.30
50790;BME280;37287;47.554;7.844;2023-08-12T12:53:27;98029.16;;;27.08;79.87
50790;BME280;37287;47.554;7.844;2023-08-12T12:55:54;98023.22;;;26.20;94.45
50790;BME280;37287;47.554;7.844;2023-08-12T12:58:23;98017.97;;;26.22;90.77
50790;BME280;37287;47.554;7.844;2023-08-12T13:00:49;98020.25;;;26.68;85.58
50790;BME280;37287;47.554;7.844;2023-08-12T13:03:16;98023.88;;;27.10;81.14
50790;BME280;37287;47.554;7.844;2023-08-12T13:05:45;98017.53;;;27.30;76.37
50790;BME280;37287;47.554;7.844;2023-08-12T13:08:11;98019.59;;;27.50;74.93
50790;BME280;37287;47.554;7.844;2023-08-12T13:10:39;98017.97;;;27.64;73.69
50790;BME280;37287;47.554;7.844;2023-08-12T13:13:16;98018.34;;;27.31;77.11
50790;BME280;37287;47.554;7.844;2023-08-12T13:15:43;98020.44;;;27.36;74.81
50790;BME280;37287;47.554;7.844;2023-08-12T13:18:10;98014.88;;;27.36;74.62
50790;BME280;37287;47.554;7.844;2023-08-12T13:20:39;98018.19;;;27.19;70.79
50790;BME280;37287;47.554;7.844;2023-08-12T13:23:06;98005.94;;;27.11;74.25
50790;BME280;37287;47.554;7.844;2023-08-12T13:25:33;98005.13;;;27.05;75.09
50790;BME280;37287;47.554;7.844;2023-08-12T13:28:03;98008.16;;;27.07;75.48
50790;BME280;37287;47.554;7.844;2023-08-12T13:30:30;98016.69;;;27.03;75.18
50790;BME280;37287;47.554;7.844;2023-08-12T13:32:57;98016.09;;;26.93;75.72
50790;BME280;37287;47.554;7.844;2023-08-12T13:35:27;98019.31;;;26.92;75.63
50790;BME280;37287;47.554;7.844;2023-08-12T13:37:53;98015.78;;;26.91;76.00
50790;BME280;37287;47.554;7.844;2023-08-12T13:40:20;98001.63;;;26.89;76.26
50790;BME280;37287;47.554;7.844;2023-08-12T13:42:47;98011.13;;;26.83;75.88
50790;BME280;37287;47.554;7.844;2023-08-12T13:45:14;98012.84;;;26.80;76.81
50790;BME280;37287;47.554;7.844;2023-08-12T13:47:40;98022.81;;;26.72;77.52
50790;BME280;37287;47.554;7.844;2023-08-12T13:50:08;98022.06;;;26.71;76.92
50790;BME280;37287;47.554;7.844;2023-08-12T13:52:34;98013.91;;;26.68;77.61